Time;durP1;ratioP1;P1;durP2;ratioP2;P2;SDS_P1;SDS_P2;PMS_P1;PMS_P2;Temp;Humidity;BMP_temperature;BMP_pressure;BME280_temperature;BME280_humidity;BME280_pressure;Samples;Min_cycle;Max_cycle;Signal;HPM_P1;HPM_P2
2024/03/25 00:00:38;;;;;;;5.70;2.08;;;;;;;18.61;40.95;100720.38;4970150;28;20459;-74
2024/03/25 00:03:04;;;;;;;5.80;2.00;;;;;;;18.56;40.82;100714.66;4968255;28;20038;-74
2024/03/25 00:05:30;;;;;;;6.93;2.10;;;;;;;18.54;40.94;100722.69;4970248;28;20023;-74
2024/03/25 00:07:56;;;;;;;6.47;2.00;;;;;;;18.59;40.71;100735.50;4970148;28;20034;-74
2024/03/25 00:10:22;;;;;;;5.68;2.05;;;;;;;18.57;40.66;100730.34;4970321;28;20041;-73
2024/03/25 00:12:52;;;;;;;5.95;2.03;;;;;;;18.49;40.71;100723.09;4969674;28;20037;-74
2024/03/25 00:15:19;;;;;;;7.28;2.13;;;;;;;18.52;40.77;100726.41;4970142;28;20113;-73
2024/03/25 00:17:44;;;;;;;8.23;2.03;;;;;;;18.42;40.71;100707.91;4969755;28;20062;-73
2024/03/25 00:20:10;;;;;;;5.95;2.00;;;;;;;18.46;40.94;100715.41;4970027;28;20439;-76
2024/03/25 00:22:35;;;;;;;5.25;1.73;;;;;;;18.49;40.61;100723.09;4970175;28;20816;-74
2024/03/25 00:25:01;;;;;;;6.05;2.10;;;;;;;18.49;40.70;100723.09;4969941;28;20118;-73
2024/03/25 00:27:26;;;;;;;6.80;1.90;;;;;;;18.48;40.56;100710.88;4969678;28;20027;-73
2024/03/25 00:29:51;;;;;;;6.75;1.80;;;;;;;18.52;40.71;100723.78;4968559;28;20039;-74
2024/03/25 00:32:17;;;;;;;5.38;1.77;;;;;;;18.47;40.63;100719.75;4969869;28;20027;-73
2024/03/25 00:34:42;;;;;;;6.72;2.22;;;;;;;18.36;40.41;100701.34;4969457;28;20073;-75
2024/03/25 00:37:07;;;;;;;7.20;2.03;;;;;;;18.42;40.47;100706.13;4967534;28;20041;-74
2024/03/25 00:39:34;;;;;;;6.55;2.10;;;;;;;18.43;40.77;100715.69;4969548;28;20070;-73
2024/03/25 00:41:59;;;;;;;5.55;1.65;;;;;;;18.32;40.37;100699.91;4969053;28;20031;-74
2024/03/25 00:44:25;;;;;;;8.60;1.90;;;;;;;18.33;40.63;100716.59;4969397;28;20487;-74
2024/03/25 00:46:51;;;;;;;6.72;1.90;;;;;;;18.32;40.56;100705.19;4967690;28;20070;-74
2024/03/25 00:49:16;;;;;;;5.65;1.70;;;;;;;18.31;40.36;100707.00;4969669;28;20029;-75
2024/03/25 00:51:41;;;;;;;7.47;1.85;;;;;;;18.30;40.79;100713.25;4969507;28;20030;-74
2024/03/25 00:54:07;;;;;;;6.30;2.15;;;;;;;18.41;40.55;100733.44;4969451;28;20022;-75
2024/03/25 00:56:32;;;;;;;5.88;1.92;;;;;;;18.37;40.13;100728.56;4969546;28;20023;-74
2024/03/25 00:59:02;;;;;;;7.78;2.05;;;;;;;18.35;40.21;100728.69;4969008;28;20030;-74
2024/03/25 01:01:31;;;;;;;7.90;2.20;;;;;;;18.37;40.61;100733.84;4967780;28;20023;-73
2024/03/25 01:03:57;;;;;;;6.03;1.80;;;;;;;18.27;40.24;100723.22;4968336;28;20026;-73
2024/03/25 01:06:22;;;;;;;6.38;1.70;;;;;;;18.22;40.37;100717.50;4968876;28;20030;-75
2024/03/25 01:08:47;;;;;;;5.55;1.90;;;;;;;18.22;40.07;100720.97;4969357;28;20077;-74
2024/03/25 01:11:13;;;;;;;4.90;1.70;;;;;;;18.30;40.24;100730.88;4969037;28;20034;-73
2024/03/25 01:13:38;;;;;;;7.65;2.08;;;;;;;18.20;40.19;100711.50;4968673;28;20066;-74
2024/03/25 01:16:04;;;;;;;5.00;1.65;;;;;;;18.26;40.11;100725.03;4968787;28;20019;-74
2024/03/25 01:18:29;;;;;;;6.30;1.98;;;;;;;18.22;40.04;100720.13;4968904;28;20091;-73
2024/03/25 01:20:54;;;;;;;5.93;1.90;;;;;;;18.17;39.96;100719.69;4968984;28;20443;-74
2024/03/25 01:23:20;;;;;;;5.18;1.77;;;;;;;18.26;40.20;100738.22;4969012;28;20035;-73
2024/03/25 01:25:45;;;;;;;6.47;2.33;;;;;;;18.18;40.08;100731.91;4968988;28;20042;-74
2024/03/25 01:28:11;;;;;;;6.15;2.10;;;;;;;18.23;40.06;100751.66;4968827;28;20045;-73
2024/03/25 01:30:38;;;;;;;7.05;1.58;;;;;;;18.23;39.99;100745.53;4967350;28;20483;-74
2024/03/25 01:33:05;;;;;;;7.07;2.00;;;;;;;18.17;40.08;100738.97;4966919;28;20035;-74
2024/03/25 01:35:30;;;;;;;7.35;1.77;;;;;;;18.21;39.82;100739.56;4968313;28;20054;-74
2024/03/25 01:37:56;;;;;;;8.10;2.30;;;;;;;17.99;40.14;100703.56;4968209;28;20033;-75
2024/03/25 01:40:21;;;;;;;5.93;1.80;;;;;;;18.19;40.04;100728.31;4968758;28;20035;-74
2024/03/25 01:43:00;;;;;;;5.07;1.83;;;;;;;18.10;39.89;100714.94;4968243;28;20052;-74
2024/03/25 01:45:28;;;;;;;6.20;1.77;;;;;;;18.21;39.83;100729.00;4968506;28;20027;-74
2024/03/25 01:47:54;;;;;;;6.32;1.80;;;;;;;18.20;39.93;100722.03;4967624;28;20047;-73
2024/03/25 01:50:21;;;;;;;7.65;2.08;;;;;;;18.14;39.71;100720.78;4965478;28;20034;-74
2024/03/25 01:52:47;;;;;;;6.28;1.98;;;;;;;18.12;39.88;100713.00;4968505;28;20027;-74
2024/03/25 01:55:19;;;;;;;5.88;1.92;;;;;;;18.06;39.82;100712.66;4968237;28;20418;-74
2024/03/25 01:57:45;;;;;;;6.13;2.20;;;;;;;18.06;39.74;100712.66;4968019;28;20066;-75
2024/03/25 02:00:10;;;;;;;6.07;2.00;;;;;;;18.12;39.86;100723.53;4968191;28;20065;-74
2024/03/25 02:02:41;;;;;;;7.25;1.98;;;;;;;18.05;39.70;100719.72;4966975;28;20411;-74
2024/03/25 02:05:07;;;;;;;6.68;2.10;;;;;;;18.03;39.88;100716.38;4968424;28;20026;-74
2024/03/25 02:07:36;;;;;;;6.53;1.95;;;;;;;18.09;39.71;100729.06;4968053;28;20155;-74
2024/03/25 02:10:03;;;;;;;7.63;2.17;;;;;;;18.08;39.79;100737.09;4968180;28;20034;-73
2024/03/25 02:12:29;;;;;;;5.43;1.70;;;;;;;17.98;39.84;100715.94;4967936;28;20039;-73
2024/03/25 02:14:55;;;;;;;5.47;1.90;;;;;;;18.09;39.60;100736.97;4967778;28;20026;-74
2024/03/25 02:17:20;;;;;;;6.95;1.75;;;;;;;18.05;40.01;100730.28;4967965;28;20114;-74
2024/03/25 02:19:45;;;;;;;6.78;2.22;;;;;;;18.09;39.56;100741.44;4968053;28;20031;-74
2024/03/25 02:22:11;;;;;;;6.25;1.70;;;;;;;18.06;39.62;100739.03;4967959;28;20038;-75
2024/03/25 02:24:38;;;;;;;5.15;1.45;;;;;;;17.97;39.69;100721.34;4967899;28;20029;-75
2024/03/25 02:27:04;;;;;;;6.80;1.80;;;;;;;18.03;39.78;100729.56;4967985;28;20030;-75
2024/03/25 02:29:35;;;;;;;4.65;1.67;;;;;;;18.04;39.46;100723.34;4967587;28;20430;-75
2024/03/25 02:32:00;;;;;;;5.85;1.90;;;;;;;18.04;39.61;100722.47;4968007;28;20459;-73
2024/03/25 02:34:26;;;;;;;6.65;1.83;;;;;;;18.03;39.77;100724.28;4967419;28;20071;-75
2024/03/25 02:36:52;;;;;;;5.25;1.90;;;;;;;18.05;39.62;100718.91;4967613;28;20067;-74
2024/03/25 02:39:18;;;;;;;5.97;1.88;;;;;;;18.02;39.58;100716.50;4967766;28;20031;-75
2024/03/25 02:41:43;;;;;;;7.25;2.00;;;;;;;17.90;39.63;100698.09;4967683;28;20096;-74
2024/03/25 02:44:09;;;;;;;7.10;2.17;;;;;;;17.90;39.67;100703.38;4967250;28;20027;-73
2024/03/25 02:46:34;;;;;;;6.38;1.83;;;;;;;17.98;39.59;100715.09;4967705;28;20440;-73
2024/03/25 02:48:59;;;;;;;7.47;2.20;;;;;;;18.01;39.53;100718.31;4967768;28;20455;-73
2024/03/25 02:51:25;;;;;;;7.30;1.70;;;;;;;17.98;39.40;100708.03;4967584;28;20042;-74
2024/03/25 02:53:51;;;;;;;6.28;1.98;;;;;;;17.97;39.40;100706.34;4967603;28;20050;-75
2024/03/25 02:56:16;;;;;;;4.25;1.45;;;;;;;17.93;39.60;100697.84;4967539;28;20037;-73
2024/03/25 02:58:41;;;;;;;5.00;1.70;;;;;;;17.97;39.66;100697.59;4967799;28;20534;-74
2024/03/25 03:01:07;;;;;;;7.03;1.90;;;;;;;18.00;39.31;100710.53;4968888;28;20030;-74
2024/03/25 03:03:32;;;;;;;6.38;1.73;;;;;;;17.92;39.18;100700.63;4969290;28;20074;-74
2024/03/25 03:05:57;;;;;;;6.25;2.20;;;;;;;17.84;39.61;100680.13;4970858;28;20069;-75
2024/03/25 03:08:23;;;;;;;5.72;1.70;;;;;;;17.86;39.49;100683.47;4971414;28;20030;-74
2024/03/25 03:10:48;;;;;;;6.05;1.70;;;;;;;17.94;39.48;100688.13;4971249;28;20073;-73
2024/03/25 03:13:13;;;;;;;6.63;1.67;;;;;;;17.91;39.43;100691.88;4971151;28;20090;-73
2024/03/25 03:15:43;;;;;;;6.82;1.92;;;;;;;17.95;39.42;100703.81;4971202;28;20384;-73
2024/03/25 03:18:09;;;;;;;7.80;2.10;;;;;;;17.84;39.23;100677.50;4971019;28;20069;-74
2024/03/25 03:20:34;;;;;;;7.57;2.00;;;;;;;17.93;39.34;100699.66;4971017;28;20058;-73
2024/03/25 03:22:59;;;;;;;7.63;2.00;;;;;;;17.92;39.42;100697.97;4971040;28;20507;-74
2024/03/25 03:25:24;;;;;;;4.70;1.50;;;;;;;17.91;39.47;100683.13;4969358;28;20038;-74
2024/03/25 03:27:50;;;;;;;5.28;2.13;;;;;;;17.85;39.17;100673.91;4970741;28;20146;-74
2024/03/25 03:30:15;;;;;;;5.03;1.55;;;;;;;17.88;39.29;100681.59;4970678;28;20084;-73
2024/03/25 03:32:40;;;;;;;6.03;1.95;;;;;;;17.80;39.07;100660.28;4970355;28;20030;-73
2024/03/25 03:35:07;;;;;;;6.07;1.92;;;;;;;17.91;39.08;100689.25;4970583;28;20427;-73
2024/03/25 03:37:32;;;;;;;5.00;1.60;;;;;;;17.88;38.67;100693.91;4970738;28;20134;-74
2024/03/25 03:39:57;;;;;;;5.75;1.70;;;;;;;17.78;38.81;100667.44;4969176;28;20121;-73
2024/03/25 03:42:23;;;;;;;6.60;1.80;;;;;;;17.75;39.20;100665.06;4970762;28;20117;-74
2024/03/25 03:44:48;;;;;;;5.18;1.80;;;;;;;17.83;39.13;100689.00;4969679;28;20456;-74
2024/03/25 03:47:13;;;;;;;5.15;1.88;;;;;;;17.85;39.15;100695.00;4970655;28;20348;-73
2024/03/25 03:49:38;;;;;;;6.00;2.22;;;;;;;17.83;38.92;100691.66;4970694;28;20035;-74
2024/03/25 03:52:04;;;;;;;7.28;2.10;;;;;;;17.76;39.06;100675.47;4970562;28;20062;-76
2024/03/25 03:54:29;;;;;;;5.10;1.42;;;;;;;17.73;38.93;100674.91;4970460;28;20379;-75
2024/03/25 03:56:54;;;;;;;4.90;1.52;;;;;;;17.75;38.93;100678.25;4970158;28;20030;-75
2024/03/25 03:59:20;;;;;;;5.72;1.55;;;;;;;17.79;39.33;100681.47;4968735;28;20081;-74
2024/03/25 04:01:45;;;;;;;4.75;1.63;;;;;;;17.82;39.05;100689.13;4969382;28;20037;-74
2024/03/25 04:04:10;;;;;;;7.30;1.90;;;;;;;17.79;38.96;100684.13;4970066;28;20439;-75
2024/03/25 04:06:35;;;;;;;5.53;1.98;;;;;;;17.66;38.79;100661.41;4970391;28;20260;-74
2024/03/25 04:09:01;;;;;;;5.85;1.85;;;;;;;17.79;39.07;100679.66;4970531;28;20481;-74
2024/03/25 04:11:26;;;;;;;5.78;2.00;;;;;;;17.81;38.64;100679.53;4970244;28;20455;-75
2024/03/25 04:13:51;;;;;;;5.28;1.80;;;;;;;17.79;39.05;100689.38;4969364;28;20042;-73
2024/03/25 04:16:17;;;;;;;5.22;1.70;;;;;;;17.74;38.87;100677.41;4970507;28;20093;-73
2024/03/25 04:18:43;;;;;;;5.47;1.90;;;;;;;17.43;38.96;100628.19;4969837;28;20026;-73
2024/03/25 04:21:12;;;;;;;5.47;1.63;;;;;;;17.78;38.88;100680.63;4970360;28;20027;-74
2024/03/25 04:23:37;;;;;;;7.10;2.10;;;;;;;17.73;38.63;100665.19;4970359;28;20034;-75
2024/03/25 04:26:06;;;;;;;5.85;1.83;;;;;;;17.74;38.80;100674.78;4970579;28;20030;-73
2024/03/25 04:28:31;;;;;;;5.95;1.95;;;;;;;17.64;38.81;100652.78;4969884;28;20054;-75
2024/03/25 04:30:56;;;;;;;5.63;2.13;;;;;;;17.73;38.90;100673.09;4970335;28;20468;-73
2024/03/25 04:33:22;;;;;;;5.38;1.98;;;;;;;17.67;38.65;100662.22;4968556;28;20419;-73
2024/03/25 04:35:47;;;;;;;7.63;2.47;;;;;;;17.69;38.69;100671.69;4970306;28;20082;-74
2024/03/25 04:38:13;;;;;;;5.68;1.80;;;;;;;17.75;38.67;100680.88;4970430;28;20465;-75
2024/03/25 04:40:39;;;;;;;5.65;2.58;;;;;;;17.74;38.50;100679.22;4970470;28;20349;-73
2024/03/25 04:43:04;;;;;;;5.82;2.10;;;;;;;17.70;38.47;100680.41;4970500;28;20030;-75
2024/03/25 04:45:30;;;;;;;5.75;2.22;;;;;;;17.69;38.30;100676.97;4970483;28;20109;-74
2024/03/25 04:47:55;;;;;;;6.97;2.22;;;;;;;17.71;38.70;100680.28;4970332;28;20413;-74
2024/03/25 04:50:21;;;;;;;5.82;1.92;;;;;;;17.66;38.67;100679.84;4970464;28;20109;-73
2024/03/25 04:52:46;;;;;;;8.02;2.55;;;;;;;17.67;38.57;100684.13;4970002;28;20129;-73
2024/03/25 04:55:11;;;;;;;5.20;1.95;;;;;;;17.54;38.67;100655.31;4970224;28;20069;-74
2024/03/25 04:57:36;;;;;;;6.13;2.00;;;;;;;17.71;38.71;100690.00;4970018;28;20744;-74
2024/03/25 05:00:02;;;;;;;4.30;1.53;;;;;;;17.65;38.68;100683.44;4970405;28;20260;-75
2024/03/25 05:02:27;;;;;;;5.28;1.75;;;;;;;17.59;38.48;100666.34;4968593;28;20276;-74
2024/03/25 05:04:53;;;;;;;5.85;2.00;;;;;;;17.61;38.45;100678.53;4970571;28;20066;-73
2024/03/25 05:07:18;;;;;;;5.38;1.75;;;;;;;17.60;38.59;100677.72;4970985;28;20053;-74
2024/03/25 05:09:44;;;;;;;5.10;1.83;;;;;;;17.51;38.66;100657.38;4971042;28;20038;-74
2024/03/25 05:12:10;;;;;;;5.55;2.08;;;;;;;17.53;38.38;100669.47;4970650;28;20026;-74
2024/03/25 05:14:35;;;;;;;4.65;1.88;;;;;;;17.62;38.26;100685.50;4971317;28;20042;-74
2024/03/25 05:17:03;;;;;;;4.90;1.90;;;;;;;17.61;38.56;100684.66;4969888;28;20035;-73
2024/03/25 05:19:28;;;;;;;5.13;2.00;;;;;;;17.54;38.39;100678.22;4970856;28;20356;-74
2024/03/25 05:21:54;;;;;;;4.70;1.70;;;;;;;17.62;38.69;100688.94;4970987;28;20026;-73
2024/03/25 05:24:19;;;;;;;6.00;2.03;;;;;;;17.47;38.33;100669.97;4970939;28;20501;-74
2024/03/25 05:26:45;;;;;;;5.32;2.05;;;;;;;17.59;38.55;100690.06;4970662;28;20034;-74
2024/03/25 05:29:10;;;;;;;4.40;1.80;;;;;;;17.44;38.49;100661.47;4969166;28;20031;-74
2024/03/25 05:31:35;;;;;;;4.72;1.70;;;;;;;17.49;38.52;100677.75;4971424;28;20026;-74
2024/03/25 05:34:02;;;;;;;4.38;1.65;;;;;;;17.59;38.25;100697.09;4971024;28;20111;-74
2024/03/25 05:36:28;;;;;;;5.43;1.98;;;;;;;17.57;38.42;100689.31;4971076;28;20058;-75
2024/03/25 05:38:53;;;;;;;4.47;1.75;;;;;;;17.60;38.26;100698.78;4970923;28;20074;-73
2024/03/25 05:41:18;;;;;;;4.90;1.67;;;;;;;17.48;38.39;100682.19;4970936;28;20050;-74
2024/03/25 05:43:44;;;;;;;5.70;2.05;;;;;;;17.50;38.54;100688.16;4970644;28;20034;-74
2024/03/25 05:46:09;;;;;;;5.20;2.03;;;;;;;17.58;38.67;100698.09;4968488;28;20034;-73
2024/03/25 05:48:34;;;;;;;5.00;1.98;;;;;;;17.57;38.15;100699.88;4969846;28;20109;-73
2024/03/25 05:51:01;;;;;;;4.53;1.90;;;;;;;17.48;38.39;100679.56;4968272;28;20065;-74
2024/03/25 05:53:29;;;;;;;5.43;1.83;;;;;;;17.45;38.70;100674.53;4970899;28;20026;-75
2024/03/25 05:55:55;;;;;;;4.90;1.67;;;;;;;17.58;38.97;100691.00;4970734;28;20491;-74
2024/03/25 05:58:21;;;;;;;5.25;1.67;;;;;;;17.59;39.19;100679.50;4970742;28;20111;-74
2024/03/25 06:00:49;;;;;;;5.90;2.00;;;;;;;17.49;39.10;100667.22;4971129;28;20090;-77
2024/03/25 06:03:16;;;;;;;5.60;1.65;;;;;;;17.56;39.55;100674.50;4969733;28;20031;-74
2024/03/25 06:05:42;;;;;;;4.20;1.58;;;;;;;17.66;39.60;100677.22;4973240;28;20022;-75
2024/03/25 06:08:18;;;;;;;4.32;1.15;;;;;;;17.61;39.46;100663.59;4974477;28;20049;-75
2024/03/25 06:10:44;;;;;;;3.70;1.42;;;;;;;17.69;39.51;100674.31;4973754;28;20031;-74
2024/03/25 06:13:09;;;;;;;4.57;1.60;;;;;;;17.67;39.53;100664.84;4974152;28;20041;-74
2024/03/25 06:15:34;;;;;;;3.70;1.30;;;;;;;17.74;39.49;100661.59;4988794;28;20506;-75
2024/03/25 06:17:59;;;;;;;4.00;1.58;;;;;;;17.84;39.54;100671.38;4972972;28;20046;-76
2024/03/25 06:20:25;;;;;;;3.03;1.20;;;;;;;17.83;39.18;100659.16;4974316;28;20101;-75
2024/03/25 06:22:50;;;;;;;5.05;1.70;;;;;;;17.84;39.21;100655.56;4972917;28;20027;-74
2024/03/25 06:25:16;;;;;;;4.15;1.40;;;;;;;17.93;39.12;100660.13;4973783;28;20058;-75
2024/03/25 06:27:42;;;;;;;4.10;1.52;;;;;;;17.93;39.29;100663.56;4974487;28;20106;-75
2024/03/25 06:35:35;;;;;;;3.70;1.15;;;;;;;18.03;39.28;100668.09;4968136;28;20109;-75
2024/03/25 06:38:01;;;;;;;4.18;1.45;;;;;;;17.94;39.08;100646.81;4971667;28;20462;-78
2024/03/25 06:40:26;;;;;;;3.08;1.30;;;;;;;18.05;38.84;100660.88;4971541;28;20034;-80
2024/03/25 06:42:51;;;;;;;4.82;1.70;;;;;;;18.06;39.15;100659.94;4971851;28;20337;-75
2024/03/25 06:45:17;;;;;;;4.25;1.45;;;;;;;18.04;39.30;100656.56;4971560;28;20019;-76
2024/03/25 06:47:42;;;;;;;4.25;1.45;;;;;;;17.99;39.03;100646.44;4971654;28;20030;-75
2024/03/25 06:50:08;;;;;;;3.03;1.10;;;;;;;18.02;39.06;100655.88;4971695;28;20023;-79
2024/03/25 06:52:33;;;;;;;4.60;1.40;;;;;;;18.02;38.89;100654.03;4971150;28;20023;-77
2024/03/25 06:54:58;;;;;;;4.38;1.50;;;;;;;18.10;38.91;100664.81;4971496;28;20027;-78
2024/03/25 06:57:24;;;;;;;4.15;1.20;;;;;;;18.18;38.85;100673.88;4971237;28;20058;-76
2024/03/25 06:59:49;;;;;;;3.72;1.17;;;;;;;18.19;38.82;100665.00;4970233;28;20065;-73
2024/03/25 07:02:14;;;;;;;3.23;1.40;;;;;;;18.18;38.92;100655.41;4970456;28;20157;-75
2024/03/25 07:04:40;;;;;;;4.13;1.70;;;;;;;18.18;38.80;100650.13;4970574;28;20327;-75
2024/03/25 07:07:05;;;;;;;3.40;1.40;;;;;;;18.16;38.95;100644.97;4971382;28;20106;-72
2024/03/25 07:09:30;;;;;;;3.15;1.30;;;;;;;18.27;38.82;100654.63;4971457;28;20466;-78
2024/03/25 07:11:55;;;;;;;3.22;1.20;;;;;;;18.28;38.79;100657.16;4986097;28;20031;-69
2024/03/25 07:14:21;;;;;;;4.57;1.63;;;;;;;18.21;39.06;100648.06;4970660;28;20455;-73
2024/03/25 07:16:46;;;;;;;4.47;1.60;;;;;;;18.15;39.06;100643.34;4971239;28;20269;-71
2024/03/25 07:19:11;;;;;;;4.82;1.73;;;;;;;18.24;39.50;100652.25;4970826;28;20535;-69
2024/03/25 07:21:37;;;;;;;4.85;1.55;;;;;;;18.27;39.50;100660.75;4971178;28;20042;-69
2024/03/25 07:24:02;;;;;;;5.32;1.70;;;;;;;18.27;39.53;100659.91;4971022;28;20114;-70
2024/03/25 07:26:29;;;;;;;5.18;1.73;;;;;;;18.19;39.76;100644.72;4970924;28;20411;-69
2024/03/25 07:28:54;;;;;;;5.57;2.20;;;;;;;18.18;39.81;100644.84;4970971;28;20030;-69
2024/03/25 07:31:19;;;;;;;5.00;1.95;;;;;;;18.11;39.59;100639.28;4970929;28;20122;-70
2024/03/25 07:33:45;;;;;;;4.50;1.90;;;;;;;18.16;40.04;100639.72;4970216;28;20041;-70
2024/03/25 07:36:11;;;;;;;4.22;1.70;;;;;;;18.21;39.97;100652.50;4968841;28;20050;-74
2024/03/25 07:38:36;;;;;;;6.10;1.85;;;;;;;18.24;40.03;100660.16;4970348;28;20391;-72
2024/03/25 07:41:04;;;;;;;5.15;1.65;;;;;;;18.15;40.06;100648.59;4970714;28;20031;-73
2024/03/25 07:43:29;;;;;;;4.18;1.52;;;;;;;18.23;40.26;100658.47;4968662;28;20090;-73
2024/03/25 07:45:55;;;;;;;4.07;1.70;;;;;;;18.27;40.31;100670.47;4970345;28;20035;-73
2024/03/25 07:48:20;;;;;;;4.15;1.80;;;;;;;18.19;40.59;100651.81;4968530;28;20085;-73
2024/03/25 07:50:46;;;;;;;5.15;2.10;;;;;;;18.16;40.80;100644.97;4970245;28;20449;-74
2024/03/25 07:53:12;;;;;;;5.82;1.98;;;;;;;18.27;40.80;100668.66;4968496;28;20050;-73
2024/03/25 07:55:37;;;;;;;4.35;1.80;;;;;;;18.21;41.13;100652.50;4969981;28;20035;-73
2024/03/25 07:58:03;;;;;;;6.93;1.80;;;;;;;18.19;41.21;100649.19;4969784;28;20027;-72
2024/03/25 08:00:28;;;;;;;6.20;2.20;;;;;;;18.22;40.90;100648.91;4970500;28;20105;-73
2024/03/25 08:02:53;;;;;;;5.78;1.98;;;;;;;18.34;41.13;100666.34;4968722;28;20046;-73
2024/03/25 08:05:19;;;;;;;5.68;1.70;;;;;;;18.28;41.41;100651.88;4969834;28;20030;-73
2024/03/25 08:07:45;;;;;;;6.25;2.08;;;;;;;18.21;41.25;100640.16;4969533;28;20447;-72
2024/03/25 08:10:10;;;;;;;5.43;2.40;;;;;;;18.32;41.50;100649.78;4970000;28;20029;-74
2024/03/25 08:12:36;;;;;;;6.03;2.40;;;;;;;18.32;41.46;100655.06;4969901;28;20074;-75
2024/03/25 08:15:01;;;;;;;6.05;2.33;;;;;;;18.25;41.29;100638.13;4970048;28;20026;-73
2024/03/25 08:17:26;;;;;;;5.35;2.38;;;;;;;18.34;41.53;100663.72;4970122;28;20101;-74
2024/03/25 08:19:52;;;;;;;6.90;2.65;;;;;;;18.39;41.38;100665.94;4969518;28;20375;-74
2024/03/25 08:22:17;;;;;;;6.20;2.53;;;;;;;18.29;41.51;100652.69;4969809;28;20025;-74
2024/03/25 08:24:43;;;;;;;5.75;2.10;;;;;;;18.31;41.21;100662.16;4969398;28;20050;-75
2024/03/25 08:27:08;;;;;;;6.18;2.38;;;;;;;18.34;41.27;100669.00;4968816;28;20125;-72
2024/03/25 08:29:33;;;;;;;6.70;2.70;;;;;;;18.29;41.35;100653.56;4970109;28;20031;-73
2024/03/25 08:31:58;;;;;;;6.20;2.30;;;;;;;18.32;41.39;100644.53;4969255;28;20105;-71
2024/03/25 08:34:24;;;;;;;4.65;1.70;;;;;;;18.45;41.54;100652.22;4969146;28;20304;-71
2024/03/25 08:36:49;;;;;;;4.95;2.53;;;;;;;18.55;41.22;100662.81;4970181;28;20062;-71
2024/03/25 08:39:14;;;;;;;5.95;2.00;;;;;;;18.52;41.42;100636.69;4969694;28;20427;-73
2024/03/25 08:41:39;;;;;;;6.80;2.58;;;;;;;18.53;41.35;100641.84;4969132;28;20035;-73
2024/03/25 08:44:05;;;;;;;4.55;2.00;;;;;;;18.54;41.03;100653.25;4969547;28;20582;-73
2024/03/25 08:46:30;;;;;;;4.93;2.20;;;;;;;18.48;41.05;100644.03;4969387;28;20022;-72
2024/03/25 08:48:55;;;;;;;6.07;2.05;;;;;;;18.43;41.16;100640.97;4969444;28;20405;-73
2024/03/25 08:51:21;;;;;;;7.85;2.72;;;;;;;18.49;41.47;100654.47;4965628;28;20029;-76
2024/03/25 08:53:46;;;;;;;6.80;2.50;;;;;;;18.42;41.58;100639.28;4968306;28;20070;-72
2024/03/25 08:56:11;;;;;;;6.70;2.67;;;;;;;18.36;41.58;100638.03;4968381;28;20160;-73
2024/03/25 08:58:37;;;;;;;6.32;2.83;;;;;;;18.39;41.67;100645.69;4967632;28;20280;-76
2024/03/25 09:01:02;;;;;;;8.45;2.65;;;;;;;18.42;41.47;100647.19;4968842;28;20042;-72
2024/03/25 09:03:29;;;;;;;6.30;2.95;;;;;;;18.37;41.61;100637.03;4967022;28;20031;-74
2024/03/25 09:05:54;;;;;;;6.00;2.80;;;;;;;18.48;41.66;100657.25;4968330;28;20034;-74
2024/03/25 09:08:19;;;;;;;8.82;2.70;;;;;;;18.45;41.94;100649.59;4968181;28;20047;-75
2024/03/25 09:11:04;;;;;;;7.57;3.10;;;;;;;18.44;41.86;100648.75;4968273;28;20045;-71
2024/03/25 09:13:30;;;;;;;;;;;;;;;18.46;41.80;100652.09;4968344;28;20470;-74
2024/03/25 09:15:55;;;;;;;7.30;3.13;;;;;;;18.39;41.91;100642.19;4968494;28;19910;-74
2024/03/25 09:18:20;;;;;;;5.90;2.70;;;;;;;18.50;41.98;100636.84;4967811;28;20031;-73
2024/03/25 09:20:46;;;;;;;7.38;2.80;;;;;;;18.47;41.81;100629.19;4968286;28;20257;-74
2024/03/25 09:23:11;;;;;;;8.25;3.30;;;;;;;18.48;41.98;100626.44;4966739;28;20038;-74
2024/03/25 09:25:36;;;;;;;6.55;2.80;;;;;;;18.41;42.05;100611.25;4967841;28;20034;-74
2024/03/25 09:28:02;;;;;;;6.40;3.03;;;;;;;18.39;42.13;100607.88;4968039;28;20456;-74
2024/03/25 09:30:27;;;;;;;6.82;2.60;;;;;;;18.52;42.38;100626.13;4967969;28;20053;-73
2024/03/25 09:32:53;;;;;;;6.63;2.80;;;;;;;18.44;42.00;100606.53;4967428;28;20403;-72
2024/03/25 09:35:18;;;;;;;6.57;2.80;;;;;;;18.40;42.18;100589.28;4967761;28;20046;-74
2024/03/25 09:37:43;;;;;;;6.68;2.97;;;;;;;18.53;42.19;100609.34;4967919;28;20029;-74
2024/03/25 09:40:09;;;;;;;7.45;2.85;;;;;;;18.55;42.09;100610.03;4967734;28;20476;-73
2024/03/25 09:42:48;;;;;;;7.03;2.80;;;;;;;18.41;41.92;100584.88;4968039;28;20038;-73
2024/03/25 09:45:16;;;;;;;6.32;2.20;;;;;;;18.42;41.91;100582.09;4968028;28;20026;-73
2024/03/25 09:47:46;;;;;;;5.30;2.35;;;;;;;18.43;41.81;100581.09;4967484;28;20121;-73
2024/03/25 09:50:16;;;;;;;7.22;2.78;;;;;;;18.40;42.05;100575.28;4963601;28;20085;-75
2024/03/25 09:52:41;;;;;;;6.70;2.90;;;;;;;18.54;41.95;100589.91;4967400;28;20076;-73
2024/03/25 09:55:07;;;;;;;7.55;2.90;;;;;;;18.54;41.71;100592.56;4967614;28;20353;-72
2024/03/25 09:57:33;;;;;;;8.55;2.97;;;;;;;18.52;41.80;100587.41;4967463;28;20039;-73
2024/03/25 09:59:58;;;;;;;6.85;2.53;;;;;;;18.48;41.86;100588.63;4967224;28;20031;-73
2024/03/25 10:02:26;;;;;;;7.25;2.92;;;;;;;18.47;41.98;100590.44;4966214;28;20033;-73
2024/03/25 10:04:52;;;;;;;6.28;2.47;;;;;;;18.40;41.85;100567.34;4967180;28;20121;-73
2024/03/25 10:07:25;;;;;;;6.30;2.65;;;;;;;18.51;41.85;100575.16;4967511;28;20368;-73
2024/03/25 10:09:51;;;;;;;10.00;2.80;;;;;;;18.47;41.86;100571.97;4967056;28;20041;-73
2024/03/25 10:12:16;;;;;;;6.93;2.47;;;;;;;18.53;42.14;100575.88;4966064;28;20043;-73
2024/03/25 10:14:43;;;;;;;6.82;2.40;;;;;;;18.51;42.20;100567.25;4967325;28;20047;-75
2024/03/25 10:17:08;;;;;;;6.22;2.45;;;;;;;18.40;42.10;100546.25;4968314;28;20093;-74
2024/03/25 10:19:34;;;;;;;7.25;2.67;;;;;;;18.41;41.90;100555.84;4966221;28;20031;-76
2024/03/25 10:22:04;;;;;;;5.78;2.53;;;;;;;18.49;42.14;100569.19;4967862;28;20468;-73
2024/03/25 10:24:39;;;;;;;5.25;2.28;;;;;;;18.38;42.11;100542.91;4968020;28;20077;-71
2024/03/25 10:27:05;;;;;;;4.78;2.08;;;;;;;18.52;42.26;100568.09;4967940;28;20026;-72
2024/03/25 10:29:31;;;;;;;6.88;2.53;;;;;;;18.51;42.05;100563.78;4967464;28;20492;-72
2024/03/25 10:32:00;;;;;;;6.07;2.33;;;;;;;18.37;42.18;100539.44;4966822;28;20041;-73
2024/03/25 10:34:25;;;;;;;6.60;2.42;;;;;;;18.46;42.29;100543.09;4967227;28;20392;-73
2024/03/25 10:36:58;;;;;;;6.38;2.33;;;;;;;18.46;42.15;100541.25;4962990;28;20045;-72
2024/03/25 10:39:30;;;;;;;6.68;2.50;;;;;;;18.47;42.12;100544.75;4965743;28;20411;-75
2024/03/25 10:41:57;;;;;;;6.18;2.35;;;;;;;18.48;42.23;100541.13;4967171;28;20037;-75
2024/03/25 10:44:26;;;;;;;5.85;2.40;;;;;;;18.46;42.36;100538.63;4965707;28;20042;-74
2024/03/25 10:47:01;;;;;;;6.65;2.30;;;;;;;18.44;42.19;100523.91;4966962;28;20035;-73
2024/03/25 10:49:43;;;;;;;6.90;2.20;;;;;;;18.45;41.90;100523.78;4966917;28;20031;-73
2024/03/25 10:52:10;;;;;;;8.98;2.38;;;;;;;18.45;42.11;100523.78;4966688;28;20080;-75
2024/03/25 10:54:36;;;;;;;4.93;2.40;;;;;;;18.37;42.09;100501.66;4966616;28;20031;-73
2024/03/25 10:57:03;;;;;;;5.50;2.08;;;;;;;18.36;41.82;100503.47;4964813;28;20035;-71
2024/03/25 10:59:30;;;;;;;5.15;2.22;;;;;;;18.37;41.75;100502.50;4966570;28;20088;-72
2024/03/25 11:01:56;;;;;;;4.95;1.95;;;;;;;18.38;41.70;100498.88;4966172;28;20018;-73
2024/03/25 11:04:22;;;;;;;5.65;2.42;;;;;;;18.46;42.14;100504.31;4964932;28;20031;-73
2024/03/25 11:06:47;;;;;;;4.78;1.85;;;;;;;18.36;41.92;100492.06;4967090;28;20064;-73
2024/03/25 11:09:30;;;;;;;5.35;2.28;;;;;;;18.49;41.98;100514.59;4963854;28;20039;-73
2024/03/25 11:11:55;;;;;;;4.88;2.05;;;;;;;18.50;41.87;100507.56;4966685;28;20034;-73
2024/03/25 11:14:25;;;;;;;5.25;1.85;;;;;;;18.44;42.00;100500.16;4966404;28;20375;-74
2024/03/25 11:16:54;;;;;;;8.20;2.08;;;;;;;18.44;42.00;100493.06;4966681;28;20074;-76
2024/03/25 11:19:25;;;;;;;5.93;2.17;;;;;;;18.47;42.13;100497.25;4966590;28;20073;-72
2024/03/25 11:21:50;;;;;;;6.13;2.13;;;;;;;18.53;41.54;100504.63;4966684;28;20590;-74
2024/03/25 11:24:15;;;;;;;5.28;1.80;;;;;;;18.43;41.69;100485.28;4970683;28;20061;-73